Time;durP1;ratioP1;P1;durP2;ratioP2;P2;SDS_P1;SDS_P2;PMS_P1;PMS_P2;Temp;Humidity;BMP_temperature;BMP_pressure;BME280_temperature;BME280_humidity;BME280_pressure;Samples;Min_cycle;Max_cycle;Signal;HPM_P1;HPM_P2
2022/03/13 00:01:45;;;;;;;17.65;11.07;;;;;;;10.63;56.29;101445.53;4981577;28;20398;-71
2022/03/13 00:04:13;;;;;;;16.02;10.60;;;;;;;10.54;56.10;101448.13;4978335;28;20065;-70
2022/03/13 00:06:39;;;;;;;16.48;11.18;;;;;;;10.57;56.26;101446.97;4976291;28;20466;-71
2022/03/13 00:09:09;;;;;;;19.45;11.50;;;;;;;10.62;56.50;101465.09;4960352;28;20034;-71
2022/03/13 00:11:35;;;;;;;14.45;10.38;;;;;;;10.59;56.09;101452.13;4978810;28;20030;-71
2022/03/13 00:14:01;;;;;;;16.25;10.70;;;;;;;10.61;56.23;101453.66;4976848;28;20410;-71
2022/03/13 00:16:26;;;;;;;16.63;10.85;;;;;;;10.54;56.29;101445.47;4976652;28;20031;-71
2022/03/13 00:18:51;;;;;;;14.05;10.05;;;;;;;10.55;56.54;101447.13;4972238;28;20166;-71
2022/03/13 00:21:19;;;;;;;19.77;10.77;;;;;;;10.54;56.38;101453.44;4977578;28;20030;-71
2022/03/13 00:23:46;;;;;;;15.48;10.98;;;;;;;10.56;56.58;101453.28;4975191;28;20029;-71
2022/03/13 00:26:15;;;;;;;14.95;10.10;;;;;;;10.57;56.70;101456.78;4974357;28;20061;-71
2022/03/13 00:28:40;;;;;;;15.15;9.73;;;;;;;10.58;56.50;101450.47;4962720;28;20054;-71
2022/03/13 00:31:06;;;;;;;20.75;9.77;;;;;;;10.52;56.29;101446.63;4977612;28;20059;-71
2022/03/13 00:33:32;;;;;;;17.13;9.15;;;;;;;10.50;57.04;101438.81;4977918;28;20046;-71
2022/03/13 00:35:58;;;;;;;14.38;9.27;;;;;;;10.50;57.18;101437.97;4973489;28;20115;-71
2022/03/13 00:38:25;;;;;;;12.75;8.93;;;;;;;10.56;57.11;101442.66;4974423;28;20801;-71
2022/03/13 00:40:51;;;;;;;17.30;9.50;;;;;;;10.54;56.89;101444.63;4977139;28;20105;-71
2022/03/13 00:43:18;;;;;;;12.68;9.02;;;;;;;10.47;57.19;101425.84;4977882;28;20030;-71
2022/03/13 00:45:43;;;;;;;17.00;9.48;;;;;;;10.44;56.95;101423.50;4975507;28;20030;-71
2022/03/13 00:48:09;;;;;;;15.43;9.50;;;;;;;10.50;57.25;101424.69;4973201;28;20041;-71
2022/03/13 00:50:34;;;;;;;13.45;9.82;;;;;;;10.49;57.32;101423.03;4975958;28;20439;-71
2022/03/13 00:52:59;;;;;;;14.70;10.25;;;;;;;10.47;57.33;101415.22;4971605;28;20061;-71
2022/03/13 00:55:25;;;;;;;18.98;10.45;;;;;;;10.47;57.17;101425.00;4979341;28;20066;-71
2022/03/13 00:57:50;;;;;;;17.23;10.70;;;;;;;10.43;57.48;101421.00;4979608;28;20388;-71
2022/03/13 01:00:16;;;;;;;17.55;11.20;;;;;;;10.44;57.58;101422.69;4958022;28;20121;-71
2022/03/13 01:02:41;;;;;;;16.13;10.73;;;;;;;10.42;57.36;101406.91;4977290;28;20150;-71
2022/03/13 01:05:12;;;;;;;13.88;10.68;;;;;;;10.44;57.38;101420.84;4973747;28;20495;-71
2022/03/13 01:07:38;;;;;;;16.63;11.00;;;;;;;10.41;57.49;101412.38;4976430;28;20101;-71
2022/03/13 01:10:07;;;;;;;17.65;10.93;;;;;;;10.36;57.43;101404.84;4976951;28;20224;-71
2022/03/13 01:12:34;;;;;;;14.85;10.77;;;;;;;10.34;57.43;101401.50;4978053;28;20018;-71
2022/03/13 01:14:59;;;;;;;17.08;10.73;;;;;;;10.30;57.54;101402.81;4979585;28;20073;-71
2022/03/13 01:17:25;;;;;;;17.02;10.70;;;;;;;10.28;57.69;101401.31;4976129;28;20062;-71
2022/03/13 01:19:50;;;;;;;17.33;11.27;;;;;;;10.28;57.57;101401.31;4981570;28;20030;-71
2022/03/13 01:22:15;;;;;;;15.95;10.75;;;;;;;10.26;57.43;101392.66;4982513;28;20434;-71
2022/03/13 01:24:44;;;;;;;15.80;11.27;;;;;;;10.20;57.67;101397.59;4983221;28;20026;-71
2022/03/13 01:27:11;;;;;;;17.92;10.68;;;;;;;10.20;57.77;101394.94;4980089;28;20023;-71
2022/03/13 01:29:36;;;;;;;15.20;10.32;;;;;;;10.15;57.91;101375.97;4980475;28;20054;-71
2022/03/13 01:32:02;;;;;;;14.93;10.85;;;;;;;10.17;57.97;101381.97;4976888;28;20517;-71
2022/03/13 01:34:41;;;;;;;14.75;10.52;;;;;;;10.14;57.73;101389.41;4981491;28;20038;-71
2022/03/13 01:37:11;;;;;;;16.10;10.90;;;;;;;10.10;58.06;101380.06;4965562;28;20038;-71
2022/03/13 01:39:37;;;;;;;15.93;10.85;;;;;;;10.09;57.84;101381.03;4973567;28;20037;-71
2022/03/13 01:42:03;;;;;;;16.45;10.68;;;;;;;10.06;57.84;101368.91;4982535;28;20026;-71
2022/03/13 01:44:28;;;;;;;20.00;10.63;;;;;;;10.02;58.48;101374.69;4982813;28;20026;-68
2022/03/13 01:46:55;;;;;;;15.18;10.43;;;;;;;9.93;58.39;101363.19;4982588;28;21541;-71
2022/03/13 01:49:20;;;;;;;15.88;10.13;;;;;;;9.91;58.25;101365.16;4983476;28;20478;-71
2022/03/13 01:51:45;;;;;;;16.15;11.38;;;;;;;9.80;58.74;101350.31;4973146;28;20033;-71
2022/03/13 01:54:12;;;;;;;15.38;9.82;;;;;;;9.87;58.35;101362.00;4979038;28;20026;-71
2022/03/13 01:56:39;;;;;;;15.05;10.32;;;;;;;9.88;58.83;101355.69;4984265;28;20041;-71
2022/03/13 01:59:06;;;;;;;15.48;10.82;;;;;;;9.84;58.88;101350.84;4979421;28;20030;-71
2022/03/13 02:01:32;;;;;;;15.40;10.07;;;;;;;9.81;58.76;101346.66;4983055;28;20038;-71
2022/03/13 02:03:57;;;;;;;16.48;9.90;;;;;;;9.77;59.14;101344.47;4982379;28;20083;-72
2022/03/13 02:06:23;;;;;;;16.02;11.02;;;;;;;9.75;59.01;101346.44;4985206;28;20033;-71
2022/03/13 02:08:50;;;;;;;15.40;10.30;;;;;;;9.73;59.42;101353.72;4987340;28;20027;-71
2022/03/13 02:11:19;;;;;;;17.88;10.60;;;;;;;9.73;59.24;101349.25;4984307;28;20176;-71
2022/03/13 02:13:53;;;;;;;19.52;10.73;;;;;;;9.73;59.23;101346.59;4979025;28;20402;-71
2022/03/13 02:16:19;;;;;;;15.18;9.10;;;;;;;9.71;59.36;101342.44;4978583;28;20022;-71
2022/03/13 02:18:51;;;;;;;16.50;9.93;;;;;;;9.70;59.50;101341.59;4960086;28;20046;-71
2022/03/13 02:21:18;;;;;;;16.40;9.85;;;;;;;9.65;59.52;101338.59;4974497;28;20026;-71
2022/03/13 02:23:44;;;;;;;14.57;9.80;;;;;;;9.66;59.72;101344.72;4987309;28;20130;-70
2022/03/13 02:26:09;;;;;;;14.57;9.70;;;;;;;9.60;59.82;101339.03;4979799;28;20596;-70
2022/03/13 02:28:37;;;;;;;14.57;9.75;;;;;;;9.61;59.83;101342.53;4974997;28;20062;-70
2022/03/13 02:31:06;;;;;;;13.60;9.55;;;;;;;9.61;59.91;101347.84;4968866;28;20057;-70
2022/03/13 02:33:32;;;;;;;14.57;9.48;;;;;;;9.58;60.07;101348.13;4986843;28;20398;-71
2022/03/13 02:36:00;;;;;;;12.63;9.60;;;;;;;9.57;60.00;101349.13;4970788;28;20457;-71
2022/03/13 02:38:27;;;;;;;13.02;9.23;;;;;;;9.53;60.31;101345.91;4984307;28;20030;-71
2022/03/13 02:40:53;;;;;;;14.13;9.65;;;;;;;9.48;60.82;101347.34;4978937;28;20039;-71
2022/03/13 02:43:19;;;;;;;14.02;10.30;;;;;;;9.47;60.59;101351.00;4977261;28;20026;-71
2022/03/13 02:45:44;;;;;;;14.82;10.40;;;;;;;9.43;60.87;101342.50;4958780;28;20074;-70
2022/03/13 02:48:11;;;;;;;15.38;10.10;;;;;;;9.44;60.85;101348.66;4987018;28;20021;-71
2022/03/13 02:50:38;;;;;;;17.25;10.27;;;;;;;9.39;60.92;101345.63;4983666;28;20022;-71
2022/03/13 02:53:04;;;;;;;16.52;10.32;;;;;;;9.39;61.03;101343.81;4968355;28;20029;-70
2022/03/13 02:55:30;;;;;;;13.48;10.30;;;;;;;9.36;61.53;101336.16;4975712;28;20109;-71
2022/03/13 02:57:56;;;;;;;16.00;11.25;;;;;;;9.36;61.40;101330.84;4979261;28;20105;-71
2022/03/13 03:00:38;;;;;;;15.00;10.85;;;;;;;9.38;61.54;101334.19;4977494;28;20454;-71
2022/03/13 03:03:03;;;;;;;15.13;10.27;;;;;;;9.32;61.51;101324.19;4974044;28;20479;-70
2022/03/13 03:05:31;;;;;;;17.75;11.02;;;;;;;9.30;61.46;101332.28;4976919;28;20027;-71
2022/03/13 03:07:56;;;;;;;14.73;10.90;;;;;;;9.28;61.24;101328.13;4978297;28;20207;-71
2022/03/13 03:10:22;;;;;;;15.75;11.00;;;;;;;9.29;61.54;101324.50;4979374;28;20027;-71
2022/03/13 03:12:47;;;;;;;16.40;11.25;;;;;;;9.28;61.75;101326.31;4979056;28;20018;-71
2022/03/13 03:15:13;;;;;;;18.65;11.65;;;;;;;9.31;61.68;101326.00;4981440;28;20385;-71
2022/03/13 03:17:38;;;;;;;18.52;11.95;;;;;;;9.28;61.72;101330.78;4987060;28;20038;-71
2022/03/13 03:20:05;;;;;;;16.55;12.02;;;;;;;9.30;61.76;101328.81;4980782;28;20030;-71
2022/03/13 03:22:31;;;;;;;19.38;12.18;;;;;;;9.31;61.85;101325.19;4988287;28;20030;-71
2022/03/13 03:24:56;;;;;;;17.38;11.95;;;;;;;9.29;61.93;101312.06;4985117;28;20053;-71
2022/03/13 03:27:22;;;;;;;19.08;12.88;;;;;;;9.27;61.53;101311.41;4986495;28;20106;-71
2022/03/13 03:29:47;;;;;;;18.33;13.02;;;;;;;9.32;61.77;101313.59;4976645;28;20078;-71
2022/03/13 03:32:12;;;;;;;20.67;12.95;;;;;;;9.25;62.23;101313.38;4984278;28;20421;-71
2022/03/13 03:34:37;;;;;;;17.98;12.73;;;;;;;9.23;61.97;101312.66;4973683;28;20508;-71
2022/03/13 03:37:03;;;;;;;21.23;13.85;;;;;;;9.20;62.10;101320.06;4976317;28;20031;-70
2022/03/13 03:39:30;;;;;;;21.40;13.60;;;;;;;9.17;62.32;101320.38;4981053;28;20037;-70
2022/03/13 03:41:56;;;;;;;20.38;14.52;;;;;;;9.15;62.72;101317.03;4977313;28;20117;-71
2022/03/13 03:44:23;;;;;;;23.02;14.88;;;;;;;9.15;62.49;101315.22;4983752;28;20097;-70
2022/03/13 03:46:49;;;;;;;22.08;15.13;;;;;;;9.13;62.88;101319.84;4977327;28;20266;-71
2022/03/13 03:49:15;;;;;;;21.80;14.90;;;;;;;9.10;63.25;101319.31;4970349;28;20038;-71
2022/03/13 03:51:42;;;;;;;25.83;15.35;;;;;;;9.03;63.06;101307.66;4953232;28;20559;-71
2022/03/13 03:54:08;;;;;;;21.80;15.43;;;;;;;9.07;63.06;101312.50;4976465;28;20541;-71
2022/03/13 03:56:34;;;;;;;24.92;14.73;;;;;;;9.10;62.87;101311.38;4980930;28;20042;-70
2022/03/13 03:58:59;;;;;;;23.08;15.32;;;;;;;9.10;63.16;101316.66;4979024;28;20081;-72
2022/03/13 04:01:25;;;;;;;26.73;15.70;;;;;;;9.06;63.22;101307.34;4959904;28;20031;-71
2022/03/13 04:03:50;;;;;;;23.45;15.25;;;;;;;9.06;63.27;101313.47;4971216;28;20537;-70
2022/03/13 04:06:19;;;;;;;23.98;15.57;;;;;;;9.06;63.05;101310.00;4978499;28;20034;-71
2022/03/13 04:08:44;;;;;;;25.05;16.55;;;;;;;9.07;63.14;101312.50;4972205;28;20114;-71
2022/03/13 04:11:11;;;;;;;25.15;15.98;;;;;;;9.04;63.37;101304.03;4982387;28;20105;-71
2022/03/13 04:13:38;;;;;;;22.88;16.50;;;;;;;9.06;63.61;101308.19;4967706;28;20482;-71
2022/03/13 04:16:05;;;;;;;30.98;17.17;;;;;;;9.04;63.40;101309.31;4974784;28;20022;-71
2022/03/13 04:18:30;;;;;;;27.05;17.40;;;;;;;8.95;63.56;101295.97;4979606;28;20034;-71
2022/03/13 04:20:56;;;;;;;26.70;17.70;;;;;;;8.97;63.35;101296.66;4977633;28;20026;-71
2022/03/13 04:23:21;;;;;;;26.63;18.15;;;;;;;8.96;63.88;101296.78;4978789;28;20446;-71
2022/03/13 04:25:47;;;;;;;27.10;17.23;;;;;;;8.97;63.77;101304.63;4979159;28;20041;-71
2022/03/13 04:28:12;;;;;;;27.73;17.90;;;;;;;8.96;63.79;101304.75;4979484;28;20027;-70
2022/03/13 04:30:39;;;;;;;27.52;18.60;;;;;;;8.92;64.00;101296.25;4979225;28;20105;-71
2022/03/13 04:33:05;;;;;;;31.05;18.98;;;;;;;8.94;63.84;101298.75;4975968;28;20782;-71
2022/03/13 04:35:31;;;;;;;28.95;20.38;;;;;;;8.90;63.80;101292.94;4975479;28;20023;-71
2022/03/13 04:37:56;;;;;;;31.10;19.77;;;;;;;8.88;64.19;101294.91;4973174;28;20034;-71
2022/03/13 04:40:21;;;;;;;33.05;19.92;;;;;;;8.90;63.92;101308.81;4978776;28;20210;-71
2022/03/13 04:42:46;;;;;;;28.67;19.00;;;;;;;8.91;63.89;101305.19;4976530;28;20042;-71
2022/03/13 04:45:12;;;;;;;27.02;18.67;;;;;;;8.92;64.14;101311.31;4984549;28;20161;-71
2022/03/13 04:47:37;;;;;;;27.80;18.05;;;;;;;8.88;63.86;101305.50;4977023;28;20030;-70
2022/03/13 04:50:03;;;;;;;30.15;19.02;;;;;;;8.84;63.95;101304.13;4979830;28;20037;-70
2022/03/13 04:52:28;;;;;;;29.77;19.45;;;;;;;8.83;63.93;101312.22;4976245;28;20486;-71
2022/03/13 04:54:54;;;;;;;29.77;19.50;;;;;;;8.85;63.98;101303.13;4971976;28;20042;-71
2022/03/13 04:57:20;;;;;;;31.35;20.45;;;;;;;8.76;64.80;101295.25;4956677;28;20026;-71
2022/03/13 04:59:45;;;;;;;28.85;19.55;;;;;;;8.72;65.30;101293.88;4979714;28;20292;-71
2022/03/13 05:02:11;;;;;;;29.15;19.80;;;;;;;8.64;65.13;101300.72;4976893;28;20175;-71
2022/03/13 05:04:38;;;;;;;27.65;19.13;;;;;;;8.63;65.10;101300.88;4974919;28;20077;-71
2022/03/13 05:07:06;;;;;;;28.27;18.60;;;;;;;8.54;65.10;101307.88;4974012;28;20106;-71
2022/03/13 05:09:32;;;;;;;29.95;19.75;;;;;;;8.51;65.52;101297.59;4976476;28;20407;-71
2022/03/13 05:11:57;;;;;;;29.88;19.23;;;;;;;8.44;65.27;101290.38;4982091;28;20109;-71
2022/03/13 05:14:23;;;;;;;28.00;18.60;;;;;;;8.40;65.43;101289.84;4974235;28;20169;-71
2022/03/13 05:16:48;;;;;;;28.52;18.52;;;;;;;8.37;65.52;101283.00;4980172;28;20030;-71
2022/03/13 05:19:13;;;;;;;28.33;18.20;;;;;;;8.40;65.19;101283.72;4980763;28;20030;-71
2022/03/13 05:21:40;;;;;;;27.38;18.55;;;;;;;8.38;65.13;101287.34;4975036;28;20058;-71
2022/03/13 05:24:06;;;;;;;27.30;17.92;;;;;;;8.31;65.19;101278.28;4971501;28;20118;-71
2022/03/13 05:26:33;;;;;;;28.40;17.52;;;;;;;8.27;64.88;101278.72;4969469;28;20455;-71
2022/03/13 05:28:58;;;;;;;25.98;17.70;;;;;;;8.28;65.42;101286.50;4978257;28;20073;-71
2022/03/13 05:31:24;;;;;;;26.15;18.17;;;;;;;8.24;65.03;101279.84;4975947;28;20030;-71
2022/03/13 05:33:50;;;;;;;24.65;17.42;;;;;;;8.27;64.90;101284.00;4976745;28;20081;-71
2022/03/13 05:36:15;;;;;;;29.15;18.17;;;;;;;8.27;65.09;101290.13;4977887;28;20410;-71
2022/03/13 05:38:41;;;;;;;28.05;17.85;;;;;;;8.19;64.75;101274.16;4976402;28;20034;-71
2022/03/13 05:41:06;;;;;;;28.77;17.60;;;;;;;8.23;64.69;101283.47;4978364;28;20093;-71
2022/03/13 05:43:32;;;;;;;29.52;17.92;;;;;;;8.19;65.13;101271.50;4970870;28;20509;-70
2022/03/13 05:45:58;;;;;;;26.27;18.15;;;;;;;8.27;64.84;101281.34;4963253;28;20053;-70
2022/03/13 05:48:25;;;;;;;28.75;18.42;;;;;;;8.24;64.77;101290.41;4971269;28;20477;-71
2022/03/13 05:50:52;;;;;;;27.90;18.30;;;;;;;8.24;65.01;101289.59;4977151;28;20029;-70
2022/03/13 05:53:17;;;;;;;26.80;17.90;;;;;;;8.25;64.54;101284.16;4973185;28;20082;-71
2022/03/13 05:55:43;;;;;;;29.42;18.60;;;;;;;8.23;64.62;101294.03;4960217;28;20038;-71
2022/03/13 05:58:08;;;;;;;27.65;18.30;;;;;;;8.19;64.79;101297.97;4974928;28;20026;-71
2022/03/13 06:00:34;;;;;;;29.85;18.52;;;;;;;8.19;64.80;101287.38;4979377;28;20031;-70
2022/03/13 06:03:00;;;;;;;26.17;18.08;;;;;;;8.19;64.81;101295.31;4966531;28;20037;-71
2022/03/13 06:05:26;;;;;;;28.98;18.00;;;;;;;8.17;64.79;101299.09;4980504;28;20043;-70
2022/03/13 06:07:52;;;;;;;29.10;18.08;;;;;;;8.20;64.68;101304.91;4983105;28;20034;-71
2022/03/13 06:10:17;;;;;;;25.70;17.70;;;;;;;8.22;64.65;101302.13;4982141;28;20015;-71
2022/03/13 06:12:43;;;;;;;30.27;19.10;;;;;;;8.17;64.51;101297.28;4985494;28;20490;-70
2022/03/13 06:15:11;;;;;;;29.52;18.05;;;;;;;8.18;64.75;101298.94;4976432;28;20023;-71
2022/03/13 06:17:45;;;;;;;28.02;17.77;;;;;;;8.15;64.69;101288.66;4980910;28;20165;-71
2022/03/13 06:20:13;;;;;;;26.52;18.10;;;;;;;8.19;64.50;101297.97;4988510;28;20124;-70
2022/03/13 06:22:39;;;;;;;25.17;16.52;;;;;;;8.19;64.41;101310.34;4983429;28;20045;-71
2022/03/13 06:25:07;;;;;;;25.58;17.20;;;;;;;8.20;64.31;101304.91;4988552;28;20120;-70
2022/03/13 06:27:33;;;;;;;30.58;18.20;;;;;;;8.18;64.69;101301.59;4987047;28;20113;-70
2022/03/13 06:30:00;;;;;;;27.40;17.13;;;;;;;8.18;64.60;101303.41;4983176;28;20112;-70
2022/03/13 06:32:26;;;;;;;26.33;17.80;;;;;;;8.15;64.77;101301.88;4984658;28;20027;-70
2022/03/13 06:34:51;;;;;;;29.08;18.10;;;;;;;8.16;64.51;101306.19;4987102;28;20029;-70
2022/03/13 06:37:16;;;;;;;26.60;16.95;;;;;;;8.18;64.56;101312.16;4983794;28;20019;-70
2022/03/13 06:39:42;;;;;;;26.60;18.27;;;;;;;8.10;64.53;101298.00;4981453;28;20551;-71
2022/03/13 06:42:08;;;;;;;31.98;17.05;;;;;;;8.16;64.52;101308.00;4979522;28;20073;-70
2022/03/13 06:44:35;;;;;;;27.75;16.60;;;;;;;8.08;64.67;101298.13;4979339;28;20034;-70
2022/03/13 06:47:00;;;;;;;27.73;16.58;;;;;;;8.10;64.30;101296.19;4962196;28;20174;-70
2022/03/13 06:49:26;;;;;;;27.48;17.70;;;;;;;8.13;64.34;101303.84;4977579;28;20046;-70
2022/03/13 06:51:51;;;;;;;24.35;17.02;;;;;;;8.11;63.95;101291.72;4973673;28;20027;-71
2022/03/13 06:54:16;;;;;;;28.40;17.58;;;;;;;8.11;64.29;101303.16;4978792;28;20023;-70
2022/03/13 06:56:42;;;;;;;26.90;17.08;;;;;;;8.13;64.16;101292.41;4979228;28;20096;-70
2022/03/13 06:59:07;;;;;;;25.15;16.90;;;;;;;8.17;64.47;101299.91;4976933;28;20033;-70
2022/03/13 07:01:34;;;;;;;26.77;17.48;;;;;;;8.16;64.51;101303.53;4966303;28;20038;-70
2022/03/13 07:04:00;;;;;;;29.05;16.85;;;;;;;8.16;64.28;101303.53;4976625;28;20025;-70
2022/03/13 07:06:25;;;;;;;29.77;18.10;;;;;;;8.15;64.20;101301.88;4975505;28;20043;-70
2022/03/13 07:08:50;;;;;;;26.38;18.05;;;;;;;8.19;64.19;101305.06;4984506;28;20722;-70
2022/03/13 07:11:16;;;;;;;28.25;17.63;;;;;;;8.19;64.36;101305.06;4984221;28;20027;-70
2022/03/13 07:13:45;;;;;;;28.88;17.48;;;;;;;8.24;64.19;101313.41;4984998;28;20433;-70
2022/03/13 07:16:12;;;;;;;26.33;17.60;;;;;;;8.27;64.17;101313.94;4981407;28;20025;-70
2022/03/13 07:18:39;;;;;;;24.48;16.67;;;;;;;8.27;64.61;101302.53;4984494;28;20532;-70
2022/03/13 07:21:04;;;;;;;24.45;17.02;;;;;;;8.31;64.33;101306.53;4989200;28;20069;-70
2022/03/13 07:23:30;;;;;;;27.92;17.42;;;;;;;8.31;64.27;101306.53;4979114;28;20076;-70
2022/03/13 07:25:56;;;;;;;30.67;17.65;;;;;;;8.32;64.12;101306.41;4986682;28;20371;-69
2022/03/13 07:28:21;;;;;;;26.45;17.17;;;;;;;8.34;64.59;101311.56;4982634;28;20026;-70
2022/03/13 07:30:46;;;;;;;24.35;16.65;;;;;;;8.35;64.15;101300.84;4983086;28;20334;-70
2022/03/13 07:33:12;;;;;;;30.30;16.48;;;;;;;8.40;64.27;101307.53;4982619;28;20482;-70
2022/03/13 07:35:38;;;;;;;30.10;16.60;;;;;;;8.44;64.07;101314.22;4984776;28;20384;-70
2022/03/13 07:38:04;;;;;;;27.00;17.70;;;;;;;8.44;64.04;101311.56;4983281;28;20026;-70
2022/03/13 07:40:30;;;;;;;26.45;16.85;;;;;;;8.44;63.94;101299.16;4984849;28;20109;-70
2022/03/13 07:42:56;;;;;;;26.58;16.98;;;;;;;8.46;64.03;101296.38;4977765;28;20110;-70
2022/03/13 07:45:21;;;;;;;25.15;17.20;;;;;;;8.51;64.19;101291.47;4976179;28;20054;-70
2022/03/13 07:47:47;;;;;;;28.08;17.55;;;;;;;8.55;63.82;101298.13;4982013;28;20038;-70
2022/03/13 07:50:12;;;;;;;26.13;17.50;;;;;;;8.51;63.98;101284.34;4982982;28;20034;-70
2022/03/13 07:52:37;;;;;;;26.73;17.73;;;;;;;8.52;63.68;101280.72;4987280;28;20054;-70
2022/03/13 07:55:04;;;;;;;25.67;17.90;;;;;;;8.63;63.93;101285.81;4980732;28;20030;-70
2022/03/13 07:57:29;;;;;;;29.35;17.83;;;;;;;8.65;63.89;101285.69;4983470;28;20030;-70
2022/03/13 07:59:54;;;;;;;28.67;17.65;;;;;;;8.73;63.77;101298.19;4969900;28;20031;-70
2022/03/13 08:02:20;;;;;;;25.92;17.50;;;;;;;8.72;63.77;101289.44;4983627;28;20039;-70
2022/03/13 08:04:45;;;;;;;27.60;17.38;;;;;;;8.77;63.60;101281.88;4977928;28;20147;-70
2022/03/13 08:07:11;;;;;;;25.98;17.52;;;;;;;8.82;63.98;101286.72;4981878;28;20072;-70
2022/03/13 08:09:36;;;;;;;27.05;17.48;;;;;;;8.90;64.00;101298.22;4968661;28;20027;-70
2022/03/13 08:12:03;;;;;;;26.75;17.27;;;;;;;8.93;63.59;101302.38;4978533;28;20061;-70
2022/03/13 08:14:28;;;;;;;26.95;17.35;;;;;;;8.97;63.21;101296.66;4983585;28;20568;-70
2022/03/13 08:16:54;;;;;;;26.65;17.65;;;;;;;8.96;63.23;101289.72;4971713;28;20030;-70
2022/03/13 08:19:19;;;;;;;27.90;18.25;;;;;;;9.00;62.97;101293.72;4976915;28;20109;-70
2022/03/13 08:21:44;;;;;;;26.23;17.30;;;;;;;8.96;62.39;101283.53;4984454;28;20077;-70
2022/03/13 08:24:10;;;;;;;28.17;17.60;;;;;;;9.00;62.14;101291.06;4976525;28;20081;-70
2022/03/13 08:26:39;;;;;;;25.63;16.65;;;;;;;9.04;62.09;101298.72;4973145;28;20038;-70
2022/03/13 08:29:09;;;;;;;26.02;17.00;;;;;;;9.05;62.04;101295.91;4976479;28;20375;-70
2022/03/13 08:31:35;;;;;;;28.63;16.95;;;;;;;9.11;61.48;101295.31;4978310;28;20129;-70
2022/03/13 08:34:07;;;;;;;24.77;16.50;;;;;;;9.11;61.31;101299.78;4980570;28;20034;-70
2022/03/13 08:36:37;;;;;;;26.23;17.35;;;;;;;9.14;61.00;101302.97;4975639;28;20050;-70
2022/03/13 08:39:02;;;;;;;;;;;;;;;9.20;61.01;101305.00;4981791;28;20034;-70
2022/03/13 08:41:27;;;;;;;25.95;15.40;;;;;;;9.17;60.62;101305.31;4973911;28;19924;-70
2022/03/13 08:43:53;;;;;;;25.27;16.27;;;;;;;9.16;60.21;101289.56;4984747;28;20454;-70
2022/03/13 08:46:18;;;;;;;25.88;16.67;;;;;;;9.14;60.14;101273.81;4969845;28;20027;-70
2022/03/13 08:48:43;;;;;;;24.05;16.23;;;;;;;9.26;60.08;101295.66;4973693;28;20088;-70
2022/03/13 08:51:11;;;;;;;22.60;16.70;;;;;;;9.27;59.53;101300.78;4983267;28;20390;-70
2022/03/13 08:53:37;;;;;;;25.60;17.13;;;;;;;9.28;58.87;101299.81;4979844;28;20086;-69
2022/03/13 08:56:02;;;;;;;31.00;16.27;;;;;;;9.20;59.27;101296.22;4976013;28;20490;-69
2022/03/13 08:58:27;;;;;;;27.25;17.98;;;;;;;9.33;59.78;101283.44;4984039;28;20275;-70
2022/03/13 09:00:53;;;;;;;29.45;16.85;;;;;;;9.42;59.43;101301.09;4975637;28;20058;-70
2022/03/13 09:03:18;;;;;;;24.48;16.40;;;;;;;9.43;59.02;101289.50;4965522;28;20518;-70
2022/03/13 09:05:44;;;;;;;27.77;16.67;;;;;;;9.49;58.59;101290.69;4979843;28;20525;-70
2022/03/13 09:08:09;;;;;;;28.60;16.92;;;;;;;9.51;58.53;101276.31;4975874;28;20023;-70
2022/03/13 09:10:35;;;;;;;27.40;16.23;;;;;;;9.62;58.72;101284.03;4983966;28;20057;-70
2022/03/13 09:13:01;;;;;;;28.92;17.38;;;;;;;9.69;58.32;101276.28;4976604;28;20375;-70
2022/03/13 09:15:26;;;;;;;29.10;17.98;;;;;;;9.74;58.28;101278.47;4963306;28;20396;-70
2022/03/13 09:17:54;;;;;;;23.35;16.88;;;;;;;9.87;58.41;101277.09;4974213;28;20070;-69
2022/03/13 09:20:21;;;;;;;27.88;17.58;;;;;;;9.96;58.15;101280.63;4979699;28;20030;-70
2022/03/13 09:22:48;;;;;;;25.83;17.58;;;;;;;10.06;57.44;101291.13;4986521;28;20023;-69
2022/03/13 09:25:13;;;;;;;26.88;17.83;;;;;;;10.17;57.43;101281.09;4979769;28;20036;-69
2022/03/13 09:27:39;;;;;;;28.88;17.98;;;;;;;10.26;57.49;101270.56;4976159;28;20030;-70
2022/03/13 09:30:05;;;;;;;29.67;18.20;;;;;;;10.45;57.59;101276.47;4974998;28;20149;-70
2022/03/13 09:32:30;;;;;;;30.75;17.70;;;;;;;10.64;56.82;101274.53;4977134;28;20486;-69
2022/03/13 09:34:56;;;;;;;27.48;18.42;;;;;;;10.81;57.01;101274.44;4977744;28;20041;-69
2022/03/13 09:37:23;;;;;;;27.15;17.42;;;;;;;10.92;56.96;101267.16;4971032;28;20037;-70
2022/03/13 09:39:49;;;;;;;26.90;18.23;;;;;;;11.05;56.75;101276.34;4982298;28;20019;-70
2022/03/13 09:42:15;;;;;;;24.48;17.70;;;;;;;11.22;56.74;101274.53;4966149;28;20682;-70
2022/03/13 09:44:40;;;;;;;28.70;17.67;;;;;;;11.32;56.86;101271.75;4978355;28;20436;-70
2022/03/13 09:47:06;;;;;;;28.80;18.25;;;;;;;11.45;56.05;101286.19;4989119;28;20036;-70
2022/03/13 09:49:32;;;;;;;29.55;18.25;;;;;;;11.52;55.98;101280.22;4988697;28;20033;-70
2022/03/13 09:51:58;;;;;;;26.38;17.98;;;;;;;11.58;55.44;101277.75;4983688;28;20038;-70
2022/03/13 09:54:24;;;;;;;26.50;17.55;;;;;;;11.70;55.51;101283.53;4971655;28;20030;-70
2022/03/13 09:56:49;;;;;;;26.80;17.90;;;;;;;11.92;55.40;101288.22;4988631;28;20481;-70
2022/03/13 09:59:14;;;;;;;25.13;17.48;;;;;;;12.03;55.04;101277.22;4983141;28;20061;-70
2022/03/13 10:01:40;;;;;;;26.58;18.13;;;;;;;12.27;55.04;101270.19;4981680;28;20053;-70
2022/03/13 10:04:06;;;;;;;28.17;18.25;;;;;;;12.36;54.56;101275.28;4980485;28;20035;-70
2022/03/13 10:06:33;;;;;;;27.17;18.10;;;;;;;12.48;54.13;101275.78;4986894;28;20037;-70
2022/03/13 10:08:59;;;;;;;27.67;17.88;;;;;;;12.50;53.87;101260.44;4965032;28;20026;-70
2022/03/13 10:11:34;;;;;;;27.95;17.13;;;;;;;12.75;54.43;101268.34;4987903;28;20553;-70
2022/03/13 10:14:07;;;;;;;25.75;16.77;;;;;;;12.87;53.63;101261.59;4984195;28;20053;-70
2022/03/13 10:16:38;;;;;;;25.40;16.88;;;;;;;13.06;52.93;101269.16;4981376;28;20034;-70
2022/03/13 10:19:17;;;;;;;24.00;16.90;;;;;;;13.13;52.60;101282.59;4960164;28;20030;-70
2022/03/13 10:22:15;;;;;;;23.70;15.38;;;;;;;13.20;52.84;101257.75;4970621;28;20030;-70
2022/03/13 10:24:46;;;;;;;21.65;14.95;;;;;;;13.36;52.29;101250.66;4955823;28;20042;-70
2022/03/13 10:27:12;;;;;;;19.58;14.63;;;;;;;13.35;51.84;101254.31;4988396;28;20092;-70
2022/03/13 10:29:37;;;;;;;24.75;15.77;;;;;;;13.44;51.85;101239.91;4979605;28;20398;-70
2022/03/13 10:32:05;;;;;;;20.45;14.48;;;;;;;13.56;51.91;101246.47;4984585;28;20062;-70
2022/03/13 10:34:30;;;;;;;25.67;15.10;;;;;;;13.58;51.78;101241.78;4982549;28;20034;-70
2022/03/13 10:36:56;;;;;;;22.50;14.63;;;;;;;13.59;51.03;101240.78;4980137;28;20098;-69
2022/03/13 10:39:21;;;;;;;23.17;14.77;;;;;;;13.64;51.46;101238.41;4978732;28;20030;-70
2022/03/13 10:41:56;;;;;;;21.90;15.60;;;;;;;13.64;50.64;101233.91;4978823;28;20030;-70
2022/03/13 10:44:25;;;;;;;21.38;14.63;;;;;;;13.72;50.60;101227.63;4984991;28;20027;-70
2022/03/13 10:47:05;;;;;;;21.65;14.93;;;;;;;13.78;50.73;101229.56;4978707;28;20018;-70
2022/03/13 10:49:45;;;;;;;20.23;14.13;;;;;;;13.89;50.69;101225.66;4970484;28;20122;-70
2022/03/13 10:52:30;;;;;;;21.42;14.43;;;;;;;13.92;50.52;101230.63;4982683;28;20029;-69
2022/03/13 10:55:00;;;;;;;21.80;15.60;;;;;;;13.84;49.99;101238.69;4982982;28;20041;-69
2022/03/13 10:57:25;;;;;;;21.70;15.40;;;;;;;13.84;50.17;101233.34;4964044;28;20404;-70
2022/03/13 11:00:07;;;;;;;18.65;14.63;;;;;;;13.83;50.00;101234.38;4983339;28;20510;-69
2022/03/13 11:02:32;;;;;;;20.40;14.27;;;;;;;13.93;50.55;101227.78;4985118;28;20031;-70
2022/03/13 11:04:57;;;;;;;21.52;14.23;;;;;;;14.01;50.27;101224.19;4983464;28;20045;-70
2022/03/13 11:07:26;;;;;;;19.45;13.13;;;;;;;14.03;50.07;101227.50;4976987;28;20053;-70
2022/03/13 11:09:55;;;;;;;21.33;14.10;;;;;;;13.99;49.85;101228.88;4982873;28;20284;-70
2022/03/13 11:12:21;;;;;;;18.30;13.25;;;;;;;13.95;49.66;101220.41;4956469;28;20110;-70